createdAt,value
2019-03-22T00:01:59.667Z,9.73
2019-03-22T00:04:28.352Z,10.40
2019-03-22T00:06:56.838Z,10.43
2019-03-22T00:09:25.692Z,9.97
2019-03-22T00:11:54.363Z,11.43
2019-03-22T00:14:23.157Z,10.23
2019-03-22T00:16:51.839Z,10.07
2019-03-22T00:19:20.684Z,10.27
2019-03-22T00:21:49.322Z,10.20
2019-03-22T00:24:18.275Z,10.20
2019-03-22T00:26:46.893Z,10.63
2019-03-22T00:29:15.620Z,9.23
2019-03-22T00:31:44.551Z,10.00
2019-03-22T00:34:13.231Z,10.07
2019-03-22T00:36:41.818Z,10.70
2019-03-22T00:39:10.647Z,11.10
2019-03-22T00:41:39.367Z,10.10
2019-03-22T00:44:08.135Z,9.33
2019-03-22T00:46:36.820Z,9.60
2019-03-22T00:49:05.417Z,9.90
2019-03-22T00:51:33.991Z,9.70
2019-03-22T00:54:02.740Z,10.13
2019-03-22T00:56:31.369Z,10.57
2019-03-22T00:59:00.259Z,9.60
2019-03-22T01:01:29.056Z,10.30
2019-03-22T01:03:57.948Z,9.43
2019-03-22T01:06:26.713Z,10.10
2019-03-22T01:08:55.595Z,9.20
2019-03-22T01:11:24.325Z,9.97
2019-03-22T01:13:52.996Z,8.70
2019-03-22T01:16:21.646Z,9.20
2019-03-22T01:18:50.495Z,9.73
2019-03-22T01:21:19.245Z,8.97
2019-03-22T01:23:48.088Z,8.57
2019-03-22T01:26:16.820Z,8.50
2019-03-22T01:28:45.289Z,8.70
2019-03-22T01:31:13.944Z,7.97
2019-03-22T01:33:42.561Z,8.30
2019-03-22T01:36:11.251Z,7.80
2019-03-22T01:38:40.101Z,9.20
2019-03-22T01:41:08.752Z,9.57
2019-03-22T01:43:37.451Z,8.80
2019-03-22T01:46:06.209Z,8.77
2019-03-22T01:48:34.983Z,8.90
2019-03-22T01:51:03.663Z,9.13
2019-03-22T01:53:32.226Z,8.53
2019-03-22T01:56:01.091Z,9.40
2019-03-22T01:58:29.746Z,9.07
2019-03-22T02:00:58.272Z,9.17
2019-03-22T02:03:27.081Z,7.63
2019-03-22T02:05:55.776Z,8.30
2019-03-22T02:08:24.636Z,8.27
2019-03-22T02:10:53.254Z,9.30
2019-03-22T02:13:22.045Z,8.67
2019-03-22T02:15:51.002Z,8.17
2019-03-22T02:18:19.632Z,8.17
2019-03-22T02:20:48.323Z,8.93
2019-03-22T02:23:17.148Z,8.47
2019-03-22T02:25:45.878Z,8.40
2019-03-22T02:28:14.669Z,8.40
2019-03-22T02:30:43.631Z,8.37
2019-03-22T02:33:12.347Z,8.50
2019-03-22T02:35:41.264Z,8.70
2019-03-22T02:38:10.077Z,8.93
2019-03-22T02:40:38.813Z,9.13
2019-03-22T02:43:07.498Z,8.90
2019-03-22T02:45:36.139Z,9.43
2019-03-22T02:48:05.071Z,8.57
2019-03-22T02:50:33.846Z,9.10
2019-03-22T02:53:02.688Z,8.97
2019-03-22T02:55:31.374Z,8.67
2019-03-22T02:58:00.116Z,9.33
2019-03-22T03:00:28.881Z,8.70
2019-03-22T03:02:57.503Z,8.60
2019-03-22T03:05:26.190Z,8.70
2019-03-22T03:07:54.960Z,9.20
2019-03-22T03:10:23.645Z,8.60
2019-03-22T03:12:52.390Z,8.80
2019-03-22T03:15:21.080Z,8.50
2019-03-22T03:17:49.800Z,9.30
2019-03-22T03:20:19.013Z,9.97
2019-03-22T03:22:48.020Z,9.00
2019-03-22T03:25:17.104Z,8.97
2019-03-22T03:27:45.890Z,9.83
2019-03-22T03:30:15.768Z,9.53
2019-03-22T03:32:44.588Z,10.13
2019-03-22T03:35:14.225Z,9.93
2019-03-22T03:37:43.029Z,9.93
2019-03-22T03:40:11.976Z,11.17
2019-03-22T03:42:40.659Z,10.63
2019-03-22T03:45:36.221Z,10.87
2019-03-22T03:48:06.435Z,9.80
2019-03-22T03:50:35.182Z,11.53
2019-03-22T03:53:04.133Z,11.40
2019-03-22T03:55:32.837Z,10.67
2019-03-22T03:58:01.710Z,10.17
2019-03-22T04:00:30.484Z,10.17
2019-03-22T04:02:59.212Z,9.87
2019-03-22T04:05:27.901Z,9.47
2019-03-22T04:07:56.641Z,10.07
2019-03-22T04:10:25.252Z,9.23
2019-03-22T04:12:54.187Z,9.70
2019-03-22T04:15:23.103Z,9.60
2019-03-22T04:17:51.761Z,9.80
2019-03-22T04:20:20.410Z,9.73
2019-03-22T04:22:49.250Z,9.37
2019-03-22T04:25:17.993Z,9.43
2019-03-22T04:27:46.693Z,9.27
2019-03-22T04:30:15.439Z,8.27
2019-03-22T04:32:44.139Z,9.77
2019-03-22T04:35:13.050Z,9.30
2019-03-22T04:37:41.805Z,9.17
2019-03-22T04:40:23.593Z,9.03
2019-03-22T04:42:52.781Z,8.10
2019-03-22T04:45:21.604Z,8.90
2019-03-22T04:47:53.562Z,9.70
2019-03-22T04:50:23.443Z,8.50
2019-03-22T04:52:52.256Z,8.50
2019-03-22T04:55:22.072Z,8.23
2019-03-22T04:57:52.293Z,9.03
2019-03-22T05:00:21.415Z,9.20
2019-03-22T05:02:50.724Z,10.07
2019-03-22T05:05:20.360Z,10.10
2019-03-22T05:07:50.227Z,9.50
2019-03-22T05:10:19.749Z,9.40
2019-03-22T05:12:49.431Z,10.20
2019-03-22T05:15:20.396Z,10.03
2019-03-22T05:17:49.576Z,10.00
2019-03-22T05:20:19.948Z,11.23
2019-03-22T05:22:49.939Z,10.63
2019-03-22T05:25:19.803Z,11.60
2019-03-22T05:27:50.346Z,12.43
2019-03-22T05:31:14.123Z,16.03
2019-03-22T05:33:42.708Z,15.43
2019-03-22T05:36:11.481Z,16.47
2019-03-22T05:38:40.280Z,16.33
2019-03-22T05:41:09.496Z,15.50
2019-03-22T05:43:38.068Z,17.63
2019-03-22T05:46:06.830Z,16.10
2019-03-22T05:48:35.668Z,16.10
2019-03-22T05:51:04.424Z,18.90
2019-03-22T05:53:33.214Z,19.37
2019-03-22T05:56:02.029Z,20.83
2019-03-22T05:58:30.687Z,22.77
2019-03-22T06:00:59.296Z,22.03
2019-03-22T06:03:28.003Z,22.33
2019-03-22T06:05:56.555Z,20.53
2019-03-22T06:08:25.027Z,21.10
2019-03-22T06:10:53.771Z,21.17
2019-03-22T06:13:22.488Z,21.77
2019-03-22T06:15:51.214Z,21.40
2019-03-22T06:18:20.020Z,20.40
2019-03-22T06:20:48.650Z,21.40
2019-03-22T06:23:17.351Z,19.77
2019-03-22T06:25:46.088Z,17.93
2019-03-22T06:28:16.039Z,16.93
2019-03-22T06:30:44.863Z,15.60
2019-03-22T06:33:13.668Z,15.03
2019-03-22T06:35:42.397Z,15.37
2019-03-22T06:38:11.063Z,15.80
2019-03-22T06:40:39.859Z,14.37
2019-03-22T06:43:08.748Z,14.27
2019-03-22T06:45:37.540Z,14.30
2019-03-22T06:48:06.391Z,14.13
2019-03-22T06:50:35.065Z,13.10
2019-03-22T06:53:03.795Z,12.93
2019-03-22T06:55:32.344Z,10.90
2019-03-22T06:58:00.967Z,10.70
2019-03-22T07:00:29.687Z,10.20
2019-03-22T07:02:58.308Z,10.87
2019-03-22T07:05:27.030Z,9.97
2019-03-22T07:07:55.731Z,10.10
2019-03-22T07:10:24.560Z,10.93
2019-03-22T07:12:53.188Z,10.87
2019-03-22T07:15:21.859Z,11.93
2019-03-22T07:17:50.760Z,11.03
2019-03-22T07:20:19.541Z,12.57
2019-03-22T07:22:48.058Z,13.47
2019-03-22T07:25:16.891Z,12.60
2019-03-22T07:27:45.501Z,12.43
2019-03-22T07:30:18.828Z,12.07
2019-03-22T07:32:44.888Z,12.10
2019-03-22T07:35:13.509Z,11.00
2019-03-22T07:37:42.392Z,10.13
2019-03-22T07:40:11.587Z,10.80
2019-03-22T07:42:40.368Z,11.30
2019-03-22T07:45:09.259Z,12.43
2019-03-22T07:47:37.884Z,13.13
2019-03-22T07:50:06.539Z,12.93
2019-03-22T07:52:35.031Z,11.27
2019-03-22T07:55:04.166Z,11.07
2019-03-22T07:57:32.798Z,11.30
2019-03-22T08:00:01.572Z,12.00
2019-03-22T08:02:30.273Z,9.73
2019-03-22T08:04:58.887Z,10.43
2019-03-22T08:07:27.631Z,10.17
2019-03-22T08:09:56.342Z,10.50
2019-03-22T08:12:25.424Z,10.17
2019-03-22T08:14:54.119Z,9.30
2019-03-22T08:17:22.870Z,10.87
2019-03-22T08:19:51.554Z,9.87
2019-03-22T08:22:20.407Z,9.57
2019-03-22T08:24:49.008Z,9.77
2019-03-22T08:27:17.727Z,9.17
2019-03-22T08:29:46.507Z,9.40
2019-03-22T08:32:15.321Z,10.57
2019-03-22T08:34:44.087Z,11.33
2019-03-22T08:37:12.845Z,9.60
2019-03-22T08:39:41.629Z,9.03
2019-03-22T08:42:10.372Z,9.33
2019-03-22T08:44:39.158Z,10.20
2019-03-22T08:47:08.079Z,10.23
2019-03-22T08:49:36.962Z,9.23
2019-03-22T08:52:05.816Z,9.23
2019-03-22T08:54:34.705Z,8.17
2019-03-22T08:57:03.433Z,9.00
2019-03-22T08:59:32.101Z,9.13
2019-03-22T09:02:00.834Z,9.83
2019-03-22T09:04:29.403Z,7.93
2019-03-22T09:06:59.104Z,10.20
2019-03-22T09:09:46.674Z,9.33
2019-03-22T09:12:15.479Z,9.43
2019-03-22T09:14:44.185Z,7.70
2019-03-22T09:17:12.865Z,8.43
2019-03-22T09:19:41.561Z,7.80
2019-03-22T09:22:10.347Z,8.40
2019-03-22T09:24:39.635Z,9.43
2019-03-22T09:27:08.495Z,9.17
2019-03-22T09:29:37.317Z,8.70
2019-03-22T09:32:06.243Z,8.07
2019-03-22T09:34:35.041Z,8.47
2019-03-22T09:37:03.778Z,7.80
2019-03-22T09:39:32.608Z,9.53
2019-03-22T09:42:01.323Z,8.80
2019-03-22T09:44:42.418Z,8.27
2019-03-22T09:47:00.545Z,8.33
2019-03-22T09:49:29.398Z,8.70
2019-03-22T09:51:58.142Z,9.00
2019-03-22T09:54:26.971Z,9.67
2019-03-22T09:56:55.643Z,8.93
2019-03-22T09:59:24.382Z,8.90
2019-03-22T10:01:53.333Z,9.43
2019-03-22T10:04:21.962Z,8.60
2019-03-22T10:06:50.778Z,8.80
2019-03-22T10:09:19.534Z,7.87
2019-03-22T10:11:48.130Z,8.37
2019-03-22T10:14:16.943Z,9.23
2019-03-22T10:16:47.591Z,8.50
2019-03-22T10:19:16.384Z,8.27
2019-03-22T10:21:45.152Z,8.13
2019-03-22T10:24:13.949Z,7.80
2019-03-22T10:26:42.614Z,8.60
2019-03-22T10:29:11.454Z,7.47
2019-03-22T10:31:40.269Z,7.57
2019-03-22T10:34:09.018Z,8.33
2019-03-22T10:36:37.833Z,8.90
2019-03-22T10:39:08.754Z,9.13
2019-03-22T10:41:37.520Z,8.37
2019-03-22T10:44:06.048Z,8.60
2019-03-22T10:46:34.917Z,8.07
2019-03-22T10:49:03.560Z,8.47
2019-03-22T10:51:32.304Z,9.50
2019-03-22T10:54:01.186Z,8.63
2019-03-22T10:56:29.802Z,7.43
2019-03-22T10:58:58.483Z,7.42
2019-03-22T11:01:27.255Z,7.72
2019-03-22T11:03:55.875Z,8.05
2019-03-22T11:06:26.393Z,8.25
2019-03-22T11:08:54.906Z,8.40
2019-03-22T11:11:23.551Z,8.23
2019-03-22T11:13:52.317Z,7.47
2019-03-22T11:16:21.228Z,8.25
2019-03-22T11:18:49.885Z,7.75
2019-03-22T11:21:18.625Z,8.28
2019-03-22T11:23:47.312Z,7.00
2019-03-22T11:26:16.092Z,7.20
2019-03-22T11:28:44.756Z,7.78
2019-03-22T11:31:13.477Z,7.87
2019-03-22T11:33:42.290Z,7.40
2019-03-22T11:36:11.109Z,8.48
2019-03-22T11:38:39.919Z,7.72
2019-03-22T11:41:08.565Z,7.58
2019-03-22T11:43:37.280Z,7.70
2019-03-22T11:46:05.986Z,7.80
2019-03-22T11:48:34.620Z,8.75
2019-03-22T11:51:03.407Z,7.97
2019-03-22T11:53:32.358Z,7.15
2019-03-22T11:56:01.118Z,8.08
2019-03-22T11:58:29.891Z,8.30
2019-03-22T12:00:58.802Z,8.03
2019-03-22T12:03:27.335Z,7.37
2019-03-22T12:05:56.048Z,7.75
2019-03-22T12:08:25.591Z,8.33
2019-03-22T12:10:54.394Z,8.15
2019-03-22T12:13:23.046Z,8.03
2019-03-22T12:15:51.823Z,7.47
2019-03-22T12:18:20.528Z,8.33
2019-03-22T12:20:49.272Z,7.60
2019-03-22T12:23:18.100Z,7.85
2019-03-22T12:25:46.855Z,7.65
2019-03-22T12:28:15.655Z,7.95
2019-03-22T12:30:44.180Z,7.17
2019-03-22T12:33:13.007Z,7.92
2019-03-22T12:35:42.703Z,8.08
2019-03-22T12:38:11.486Z,10.45
2019-03-22T12:40:40.195Z,8.08
2019-03-22T12:43:08.781Z,8.15
2019-03-22T12:45:37.608Z,8.48
2019-03-22T12:48:06.062Z,8.30
2019-03-22T12:50:34.852Z,9.20
2019-03-22T12:53:03.662Z,8.73
2019-03-22T12:55:32.305Z,8.13
2019-03-22T12:58:01.060Z,8.53
2019-03-22T13:00:29.940Z,8.23
2019-03-22T13:02:58.689Z,8.53
2019-03-22T13:05:27.128Z,8.20
2019-03-22T13:07:55.979Z,8.43
2019-03-22T13:10:25.054Z,7.83
2019-03-22T13:12:53.913Z,7.90
2019-03-22T13:15:22.705Z,7.73
2019-03-22T13:17:51.577Z,7.67
2019-03-22T13:20:20.368Z,8.40
2019-03-22T13:22:49.545Z,8.17
2019-03-22T13:25:18.380Z,8.13
2019-03-22T13:27:46.997Z,7.77
2019-03-22T13:30:32.985Z,7.70
2019-03-22T13:33:01.779Z,7.87
2019-03-22T13:35:30.501Z,8.17
2019-03-22T13:37:59.261Z,8.50
2019-03-22T13:40:27.923Z,8.10
2019-03-22T13:42:56.570Z,7.23
2019-03-22T13:45:25.339Z,8.40
2019-03-22T13:47:53.928Z,9.03
2019-03-22T13:50:22.954Z,9.53
2019-03-22T13:52:51.667Z,9.10
2019-03-22T13:55:20.296Z,8.37
2019-03-22T13:57:49.072Z,7.93
2019-03-22T14:00:18.384Z,8.50
2019-03-22T14:02:47.058Z,8.93
2019-03-22T14:05:15.767Z,8.57
2019-03-22T14:07:44.598Z,9.50
2019-03-22T14:10:27.236Z,8.77
2019-03-22T14:12:55.970Z,8.93
2019-03-22T14:15:24.711Z,9.17
2019-03-22T14:17:53.408Z,8.67
2019-03-22T14:20:22.345Z,8.67
2019-03-22T14:22:50.990Z,8.40
2019-03-22T14:25:19.885Z,8.97
2019-03-22T14:27:48.846Z,9.43
2019-03-22T14:30:17.556Z,10.83
2019-03-22T14:32:46.335Z,9.47
2019-03-22T14:35:15.088Z,9.80
2019-03-22T14:37:43.716Z,9.53
2019-03-22T14:40:15.749Z,8.83
2019-03-22T14:42:43.199Z,9.10
2019-03-22T14:45:12.036Z,10.20
2019-03-22T14:47:40.699Z,9.27
2019-03-22T14:50:09.767Z,9.50
2019-03-22T14:52:38.171Z,8.93
2019-03-22T14:55:07.164Z,9.40
2019-03-22T14:57:36.011Z,10.33
2019-03-22T15:00:05.150Z,10.33
2019-03-22T15:02:33.848Z,11.90
2019-03-22T15:05:02.724Z,9.57
2019-03-22T15:07:31.607Z,10.43
2019-03-22T15:10:00.309Z,10.80
2019-03-22T15:12:29.204Z,10.67
2019-03-22T15:15:16.170Z,18.37
2019-03-22T15:18:14.132Z,10.53
2019-03-22T15:21:10.910Z,10.83
2019-03-22T15:24:07.832Z,10.43
2019-03-22T15:26:55.589Z,10.20
2019-03-22T15:29:39.791Z,13.50
2019-03-22T15:32:39.680Z,11.00
2019-03-22T15:38:12.565Z,9.63
2019-03-22T15:40:41.394Z,10.50
2019-03-22T15:43:10.362Z,10.30
2019-03-22T15:45:39.189Z,9.67
2019-03-22T15:48:08.111Z,10.10
2019-03-22T15:50:36.820Z,10.40
2019-03-22T15:53:05.607Z,12.33
2019-03-22T15:55:34.686Z,11.03
2019-03-22T15:58:03.382Z,10.90
2019-03-22T16:00:32.292Z,10.30
2019-03-22T16:03:01.044Z,10.47
2019-03-22T16:05:29.541Z,10.17
2019-03-22T16:07:58.397Z,10.67
2019-03-22T16:10:28.089Z,10.07
2019-03-22T16:12:56.575Z,10.27
2019-03-22T16:15:25.302Z,10.50
2019-03-22T16:17:53.983Z,12.13
2019-03-22T16:20:22.882Z,9.57
2019-03-22T16:22:51.570Z,10.80
2019-03-22T16:25:20.352Z,11.20
2019-03-22T16:27:49.229Z,10.80
2019-03-22T16:30:18.271Z,11.10
2019-03-22T16:32:47.015Z,10.43
2019-03-22T16:35:15.977Z,11.00
2019-03-22T16:37:44.768Z,10.97
2019-03-22T16:40:23.638Z,11.33
2019-03-22T16:42:44.223Z,10.97
2019-03-22T16:45:34.434Z,11.07
2019-03-22T16:48:03.879Z,10.47
2019-03-22T16:50:32.682Z,10.60
2019-03-22T16:53:01.293Z,11.03
2019-03-22T16:55:30.210Z,11.40
2019-03-22T16:57:58.881Z,10.43
2019-03-22T17:00:28.460Z,12.03
2019-03-22T17:02:57.423Z,10.67
2019-03-22T17:05:26.166Z,12.00
2019-03-22T17:07:55.033Z,11.13
2019-03-22T17:10:23.960Z,12.33
2019-03-22T17:12:52.555Z,12.43
2019-03-22T17:15:21.347Z,11.03
2019-03-22T17:17:50.136Z,10.80
2019-03-22T17:20:18.784Z,11.03
2019-03-22T17:22:47.656Z,10.57
2019-03-22T17:25:16.418Z,9.97
2019-03-22T17:27:45.166Z,11.47
2019-03-22T17:30:13.713Z,11.63
2019-03-22T17:32:42.744Z,11.83
2019-03-22T17:35:11.827Z,11.37
2019-03-22T17:37:40.521Z,11.43
2019-03-22T17:40:09.337Z,11.10
2019-03-22T17:42:38.164Z,11.90
2019-03-22T17:45:07.144Z,11.40
2019-03-22T17:47:35.891Z,11.37
2019-03-22T17:50:05.182Z,12.20
2019-03-22T17:52:33.811Z,12.07
2019-03-22T17:55:02.595Z,12.37
2019-03-22T17:57:31.346Z,13.10
2019-03-22T17:59:59.820Z,13.63
2019-03-22T18:02:28.708Z,13.47
2019-03-22T18:04:57.494Z,13.20
2019-03-22T18:07:26.357Z,15.20
2019-03-22T18:09:55.252Z,14.77
2019-03-22T18:12:23.922Z,15.00
2019-03-22T18:14:52.616Z,15.10
2019-03-22T18:17:21.350Z,14.40
2019-03-22T18:19:50.028Z,14.00
2019-03-22T18:22:18.787Z,13.53
2019-03-22T18:24:47.420Z,13.73
2019-03-22T18:27:16.156Z,16.15
2019-03-22T18:29:44.866Z,14.53
2019-03-22T18:32:13.776Z,15.63
2019-03-22T18:34:42.572Z,14.60
2019-03-22T18:37:11.120Z,14.70
2019-03-22T18:39:40.041Z,14.80
2019-03-22T18:42:08.614Z,14.77
2019-03-22T18:44:37.340Z,13.97
2019-03-22T18:47:06.267Z,14.80
2019-03-22T18:49:34.870Z,14.47
2019-03-22T18:52:03.405Z,13.10
2019-03-22T18:54:32.312Z,13.40
2019-03-22T18:57:00.768Z,14.73
2019-03-22T18:59:29.636Z,14.13
2019-03-22T19:01:58.320Z,15.13
2019-03-22T19:04:27.371Z,15.13
2019-03-22T19:06:56.059Z,15.90
2019-03-22T19:09:24.863Z,16.95
2019-03-22T19:11:53.530Z,16.40
2019-03-22T19:14:22.100Z,16.43
2019-03-22T19:16:51.042Z,18.47
2019-03-22T19:19:19.754Z,18.27
2019-03-22T19:21:48.591Z,23.40
2019-03-22T19:24:17.390Z,21.00
2019-03-22T19:26:46.136Z,20.13
2019-03-22T19:29:14.724Z,21.07
2019-03-22T19:31:43.657Z,26.50
2019-03-22T19:34:12.259Z,30.60
2019-03-22T19:36:41.209Z,24.93
2019-03-22T19:39:09.987Z,27.30
2019-03-22T19:41:38.654Z,27.27
2019-03-22T19:44:07.394Z,27.37
2019-03-22T19:46:36.165Z,26.60
2019-03-22T19:49:04.791Z,28.77
2019-03-22T19:51:33.522Z,28.30
2019-03-22T19:54:02.246Z,28.97
2019-03-22T19:56:30.838Z,28.83
2019-03-22T19:58:59.379Z,26.73
2019-03-22T20:01:46.946Z,26.40
2019-03-22T20:04:15.531Z,24.23
2019-03-22T20:06:44.326Z,22.30
2019-03-22T20:09:12.975Z,23.63
2019-03-22T20:11:41.600Z,23.03
2019-03-22T20:14:10.175Z,22.83
2019-03-22T20:16:39.238Z,21.93
2019-03-22T20:19:07.766Z,22.33
2019-03-22T20:21:36.605Z,20.93
2019-03-22T20:24:05.299Z,21.07
2019-03-22T20:26:33.925Z,20.80
2019-03-22T20:29:02.741Z,25.50
2019-03-22T20:31:31.474Z,26.00
2019-03-22T20:34:00.083Z,22.20
2019-03-22T20:36:28.925Z,20.80
2019-03-22T20:38:57.627Z,20.93
2019-03-22T20:41:26.276Z,19.40
2019-03-22T20:43:55.047Z,19.93
2019-03-22T20:46:23.975Z,20.93
2019-03-22T20:48:52.509Z,23.20
2019-03-22T20:51:21.323Z,20.37
2019-03-22T20:53:50.144Z,20.33
2019-03-22T20:56:18.745Z,21.43
2019-03-22T20:58:47.685Z,20.30
2019-03-22T21:01:16.467Z,20.77
2019-03-22T21:03:45.236Z,20.07
2019-03-22T21:06:14.007Z,20.45
2019-03-22T21:08:42.815Z,19.10
2019-03-22T21:11:11.471Z,17.70
2019-03-22T21:13:40.200Z,17.97
2019-03-22T21:16:09.095Z,17.60
2019-03-22T21:18:37.849Z,26.23
2019-03-22T21:21:06.657Z,15.77
2019-03-22T21:23:36.558Z,15.70
2019-03-22T21:26:05.427Z,16.77
2019-03-22T21:28:34.220Z,16.67
2019-03-22T21:31:02.758Z,15.27
2019-03-22T21:33:31.500Z,15.53
2019-03-22T21:36:00.088Z,21.03
2019-03-22T21:38:28.827Z,16.33
2019-03-22T21:40:57.339Z,16.00
2019-03-22T21:43:26.068Z,15.70
2019-03-22T21:45:54.771Z,17.00
2019-03-22T21:48:23.392Z,16.87
2019-03-22T21:50:52.093Z,15.60
2019-03-22T21:53:20.937Z,16.30
2019-03-22T21:55:49.692Z,15.83
2019-03-22T21:58:18.350Z,16.27
2019-03-22T22:00:47.096Z,15.90
2019-03-22T22:03:15.952Z,14.97
2019-03-22T22:05:48.097Z,15.20
2019-03-22T22:08:15.107Z,14.60
2019-03-22T22:10:43.684Z,14.60
2019-03-22T22:13:12.435Z,15.57
2019-03-22T22:15:41.298Z,16.57
2019-03-22T22:18:12.735Z,16.60
2019-03-22T22:20:41.321Z,16.53
2019-03-22T22:23:10.139Z,18.30
2019-03-22T22:25:38.919Z,17.63
2019-03-22T22:28:07.602Z,16.50
2019-03-22T22:30:36.522Z,15.67
2019-03-22T22:33:05.047Z,14.97
2019-03-22T22:35:33.754Z,15.20
2019-03-22T22:38:02.699Z,15.40
2019-03-22T22:40:31.620Z,15.50
2019-03-22T22:43:00.406Z,15.90
2019-03-22T22:45:29.268Z,14.43
2019-03-22T22:47:58.023Z,14.53
2019-03-22T22:50:26.860Z,13.80
2019-03-22T22:52:55.732Z,13.77
2019-03-22T22:55:24.464Z,13.13
2019-03-22T22:57:53.139Z,13.07
2019-03-22T23:00:24.756Z,12.50
2019-03-22T23:02:53.500Z,12.07
2019-03-22T23:05:22.172Z,12.27
2019-03-22T23:07:51.123Z,12.90
2019-03-22T23:10:19.940Z,14.70
2019-03-22T23:12:48.625Z,13.17
2019-03-22T23:15:18.603Z,12.63
2019-03-22T23:17:47.353Z,13.17
2019-03-22T23:20:16.063Z,14.03
2019-03-22T23:22:44.873Z,13.63
2019-03-22T23:25:13.492Z,12.77
2019-03-22T23:27:42.172Z,12.83
2019-03-22T23:30:11.326Z,12.27
2019-03-22T23:32:40.167Z,11.90
2019-03-22T23:35:09.068Z,11.17
2019-03-22T23:37:37.923Z,10.83
2019-03-22T23:40:06.535Z,11.17
2019-03-22T23:42:35.209Z,11.30
2019-03-22T23:45:05.408Z,11.33
2019-03-22T23:47:34.212Z,11.63
2019-03-22T23:50:03.118Z,11.50
2019-03-22T23:52:31.858Z,11.60
2019-03-22T23:55:00.490Z,10.23
2019-03-22T23:57:29.273Z,10.63
2019-03-22T23:59:58.003Z,11.27
